sensor_id;sensor_type;location;lat;lon;timestamp;P1;durP1;ratioP1;P2;durP2;ratioP2
34499;SDS011;20745;50.882;6.962;2022-08-21T00:01:39;19.02;;;5.85;;
34499;SDS011;20745;50.882;6.962;2022-08-21T00:04:26;17.02;;;5.38;;
34499;SDS011;20745;50.882;6.962;2022-08-21T00:07:16;18.25;;;5.95;;
34499;SDS011;20745;50.882;6.962;2022-08-21T00:10:05;15.93;;;5.55;;
34499;SDS011;20745;50.882;6.962;2022-08-21T00:12:53;17.90;;;5.40;;
34499;SDS011;20745;50.882;6.962;2022-08-21T00:15:40;21.45;;;6.00;;
34499;SDS011;20745;50.882;6.962;2022-08-21T00:18:28;18.50;;;5.90;;
34499;SDS011;20745;50.882;6.962;2022-08-21T00:21:15;17.85;;;5.90;;
34499;SDS011;20745;50.882;6.962;2022-08-21T00:24:03;17.05;;;5.72;;
34499;SDS011;20745;50.882;6.962;2022-08-21T00:26:51;15.07;;;5.38;;
34499;SDS011;20745;50.882;6.962;2022-08-21T00:29:39;22.15;;;6.15;;
34499;SDS011;20745;50.882;6.962;2022-08-21T00:32:26;16.13;;;5.78;;
34499;SDS011;20745;50.882;6.962;2022-08-21T00:35:16;19.23;;;6.13;;
34499;SDS011;20745;50.882;6.962;2022-08-21T00:38:06;20.23;;;6.45;;
34499;SDS011;20745;50.882;6.962;2022-08-21T00:40:57;18.42;;;6.03;;
34499;SDS011;20745;50.882;6.962;2022-08-21T00:43:59;17.50;;;5.70;;
34499;SDS011;20745;50.882;6.962;2022-08-21T00:46:46;17.88;;;5.82;;
34499;SDS011;20745;50.882;6.962;2022-08-21T00:49:34;17.08;;;6.18;;
34499;SDS011;20745;50.882;6.962;2022-08-21T00:52:22;18.83;;;6.07;;
34499;SDS011;20745;50.882;6.962;2022-08-21T00:55:13;18.45;;;6.80;;
34499;SDS011;20745;50.882;6.962;2022-08-21T00:58:03;16.92;;;5.78;;
34499;SDS011;20745;50.882;6.962;2022-08-21T01:00:55;16.20;;;6.07;;
34499;SDS011;20745;50.882;6.962;2022-08-21T01:03:42;18.58;;;6.18;;
34499;SDS011;20745;50.882;6.962;2022-08-21T01:06:31;18.48;;;6.18;;
34499;SDS011;20745;50.882;6.962;2022-08-21T01:09:19;16.08;;;6.00;;
34499;SDS011;20745;50.882;6.962;2022-08-21T01:12:07;19.83;;;6.40;;
34499;SDS011;20745;50.882;6.962;2022-08-21T01:14:55;19.13;;;6.75;;
34499;SDS011;20745;50.882;6.962;2022-08-21T01:17:42;18.77;;;7.35;;
34499;SDS011;20745;50.882;6.962;2022-08-21T01:20:30;22.05;;;8.70;;
34499;SDS011;20745;50.882;6.962;2022-08-21T01:23:19;21.38;;;7.32;;
34499;SDS011;20745;50.882;6.962;2022-08-21T01:26:06;22.95;;;8.57;;
34499;SDS011;20745;50.882;6.962;2022-08-21T01:29:09;19.85;;;8.18;;
34499;SDS011;20745;50.882;6.962;2022-08-21T01:32:03;22.50;;;9.10;;
34499;SDS011;20745;50.882;6.962;2022-08-21T01:34:54;20.95;;;9.30;;
34499;SDS011;20745;50.882;6.962;2022-08-21T01:37:41;20.55;;;8.88;;
34499;SDS011;20745;50.882;6.962;2022-08-21T01:40:29;23.48;;;9.60;;
34499;SDS011;20745;50.882;6.962;2022-08-21T01:43:17;21.52;;;9.57;;
34499;SDS011;20745;50.882;6.962;2022-08-21T01:46:10;21.45;;;9.88;;
34499;SDS011;20745;50.882;6.962;2022-08-21T01:48:58;23.30;;;9.90;;
34499;SDS011;20745;50.882;6.962;2022-08-21T01:51:45;20.00;;;10.02;;
34499;SDS011;20745;50.882;6.962;2022-08-21T01:54:33;22.35;;;10.45;;
34499;SDS011;20745;50.882;6.962;2022-08-21T01:57:20;24.35;;;10.52;;
34499;SDS011;20745;50.882;6.962;2022-08-21T02:00:14;21.52;;;9.82;;
34499;SDS011;20745;50.882;6.962;2022-08-21T02:03:03;23.05;;;10.70;;
34499;SDS011;20745;50.882;6.962;2022-08-21T02:08:19;23.70;;;10.55;;
34499;SDS011;20745;50.882;6.962;2022-08-21T02:11:09;22.83;;;9.68;;
34499;SDS011;20745;50.882;6.962;2022-08-21T02:13:57;24.42;;;9.98;;
34499;SDS011;20745;50.882;6.962;2022-08-21T02:16:44;21.63;;;9.55;;
34499;SDS011;20745;50.882;6.962;2022-08-21T02:19:35;20.92;;;10.50;;
34499;SDS011;20745;50.882;6.962;2022-08-21T02:22:26;26.73;;;11.15;;
34499;SDS011;20745;50.882;6.962;2022-08-21T02:25:15;21.00;;;10.57;;
34499;SDS011;20745;50.882;6.962;2022-08-21T02:28:04;23.10;;;11.88;;
34499;SDS011;20745;50.882;6.962;2022-08-21T02:30:56;24.80;;;11.85;;
34499;SDS011;20745;50.882;6.962;2022-08-21T02:33:43;25.17;;;11.35;;
34499;SDS011;20745;50.882;6.962;2022-08-21T02:36:31;25.27;;;11.90;;
34499;SDS011;20745;50.882;6.962;2022-08-21T02:39:18;24.35;;;11.63;;
34499;SDS011;20745;50.882;6.962;2022-08-21T02:42:13;24.73;;;11.63;;
34499;SDS011;20745;50.882;6.962;2022-08-21T02:45:01;22.80;;;11.07;;
34499;SDS011;20745;50.882;6.962;2022-08-21T02:47:55;23.70;;;10.73;;
34499;SDS011;20745;50.882;6.962;2022-08-21T02:50:46;24.15;;;10.43;;
34499;SDS011;20745;50.882;6.962;2022-08-21T02:53:39;24.35;;;10.00;;
34499;SDS011;20745;50.882;6.962;2022-08-21T02:56:28;19.40;;;9.23;;
34499;SDS011;20745;50.882;6.962;2022-08-21T02:59:17;26.00;;;9.90;;
34499;SDS011;20745;50.882;6.962;2022-08-21T03:02:04;25.25;;;9.52;;
34499;SDS011;20745;50.882;6.962;2022-08-21T03:04:52;19.70;;;9.32;;
34499;SDS011;20745;50.882;6.962;2022-08-21T03:07:39;20.17;;;8.23;;
34499;SDS011;20745;50.882;6.962;2022-08-21T03:10:27;21.85;;;9.27;;
34499;SDS011;20745;50.882;6.962;2022-08-21T03:13:15;23.15;;;8.43;;
34499;SDS011;20745;50.882;6.962;2022-08-21T03:16:02;20.23;;;8.80;;
34499;SDS011;20745;50.882;6.962;2022-08-21T03:18:55;22.40;;;8.52;;
34499;SDS011;20745;50.882;6.962;2022-08-21T03:21:43;21.50;;;8.98;;
34499;SDS011;20745;50.882;6.962;2022-08-21T03:24:30;20.20;;;8.45;;
34499;SDS011;20745;50.882;6.962;2022-08-21T03:27:18;21.30;;;8.25;;
34499;SDS011;20745;50.882;6.962;2022-08-21T03:30:08;20.88;;;8.25;;
34499;SDS011;20745;50.882;6.962;2022-08-21T03:32:57;18.30;;;7.50;;
34499;SDS011;20745;50.882;6.962;2022-08-21T03:35:47;16.90;;;7.63;;
34499;SDS011;20745;50.882;6.962;2022-08-21T03:38:38;20.23;;;8.45;;
34499;SDS011;20745;50.882;6.962;2022-08-21T03:41:25;21.02;;;8.00;;
34499;SDS011;20745;50.882;6.962;2022-08-21T03:44:13;20.52;;;8.13;;
34499;SDS011;20745;50.882;6.962;2022-08-21T03:47:00;22.08;;;8.38;;
34499;SDS011;20745;50.882;6.962;2022-08-21T03:49:48;19.73;;;7.20;;
34499;SDS011;20745;50.882;6.962;2022-08-21T03:52:36;18.75;;;7.45;;
34499;SDS011;20745;50.882;6.962;2022-08-21T03:55:24;21.70;;;7.65;;
34499;SDS011;20745;50.882;6.962;2022-08-21T03:58:12;20.30;;;7.32;;
34499;SDS011;20745;50.882;6.962;2022-08-21T04:01:04;19.55;;;7.03;;
34499;SDS011;20745;50.882;6.962;2022-08-21T04:03:53;21.20;;;7.45;;
34499;SDS011;20745;50.882;6.962;2022-08-21T04:06:40;18.75;;;6.57;;
34499;SDS011;20745;50.882;6.962;2022-08-21T04:09:27;16.55;;;6.88;;
34499;SDS011;20745;50.882;6.962;2022-08-21T04:12:15;23.27;;;7.57;;
34499;SDS011;20745;50.882;6.962;2022-08-21T04:15:03;19.15;;;6.70;;
34499;SDS011;20745;50.882;6.962;2022-08-21T04:17:50;19.88;;;7.07;;
34499;SDS011;20745;50.882;6.962;2022-08-21T04:20:38;21.45;;;7.13;;
34499;SDS011;20745;50.882;6.962;2022-08-21T04:23:31;20.17;;;7.80;;
34499;SDS011;20745;50.882;6.962;2022-08-21T04:26:18;18.38;;;7.32;;
34499;SDS011;20745;50.882;6.962;2022-08-21T04:29:06;19.60;;;7.30;;
34499;SDS011;20745;50.882;6.962;2022-08-21T04:31:56;22.33;;;7.43;;
34499;SDS011;20745;50.882;6.962;2022-08-21T04:34:43;19.55;;;7.10;;
34499;SDS011;20745;50.882;6.962;2022-08-21T04:37:30;17.38;;;6.60;;
34499;SDS011;20745;50.882;6.962;2022-08-21T04:40:19;21.00;;;7.32;;
34499;SDS011;20745;50.882;6.962;2022-08-21T04:43:08;18.60;;;6.97;;
34499;SDS011;20745;50.882;6.962;2022-08-21T04:45:56;21.25;;;6.47;;
34499;SDS011;20745;50.882;6.962;2022-08-21T04:48:44;17.67;;;6.68;;
34499;SDS011;20745;50.882;6.962;2022-08-21T04:51:32;19.15;;;7.07;;
34499;SDS011;20745;50.882;6.962;2022-08-21T04:54:24;17.00;;;6.70;;
34499;SDS011;20745;50.882;6.962;2022-08-21T04:57:12;17.95;;;6.63;;
34499;SDS011;20745;50.882;6.962;2022-08-21T05:00:02;16.80;;;6.38;;
34499;SDS011;20745;50.882;6.962;2022-08-21T05:02:59;18.90;;;7.20;;
34499;SDS011;20745;50.882;6.962;2022-08-21T05:05:48;18.30;;;6.72;;
34499;SDS011;20745;50.882;6.962;2022-08-21T05:08:36;18.75;;;6.63;;
34499;SDS011;20745;50.882;6.962;2022-08-21T05:11:25;22.40;;;7.45;;
34499;SDS011;20745;50.882;6.962;2022-08-21T05:14:12;19.13;;;7.45;;
34499;SDS011;20745;50.882;6.962;2022-08-21T05:16:59;20.65;;;7.30;;
34499;SDS011;20745;50.882;6.962;2022-08-21T05:19:47;17.40;;;6.90;;
34499;SDS011;20745;50.882;6.962;2022-08-21T05:22:34;19.98;;;6.78;;
34499;SDS011;20745;50.882;6.962;2022-08-21T05:25:21;19.88;;;7.28;;
34499;SDS011;20745;50.882;6.962;2022-08-21T05:28:10;22.70;;;6.80;;
34499;SDS011;20745;50.882;6.962;2022-08-21T05:30:57;18.25;;;6.65;;
34499;SDS011;20745;50.882;6.962;2022-08-21T05:33:44;18.25;;;6.35;;
34499;SDS011;20745;50.882;6.962;2022-08-21T05:36:32;18.60;;;6.50;;
34499;SDS011;20745;50.882;6.962;2022-08-21T05:39:19;18.13;;;7.13;;
34499;SDS011;20745;50.882;6.962;2022-08-21T05:42:06;20.27;;;7.00;;
34499;SDS011;20745;50.882;6.962;2022-08-21T05:44:54;18.98;;;6.82;;
34499;SDS011;20745;50.882;6.962;2022-08-21T05:47:41;19.70;;;7.00;;
34499;SDS011;20745;50.882;6.962;2022-08-21T05:50:28;20.55;;;7.07;;
34499;SDS011;20745;50.882;6.962;2022-08-21T05:53:21;19.75;;;7.78;;
34499;SDS011;20745;50.882;6.962;2022-08-21T05:56:09;19.33;;;7.65;;
34499;SDS011;20745;50.882;6.962;2022-08-21T05:58:58;18.88;;;7.13;;
34499;SDS011;20745;50.882;6.962;2022-08-21T06:01:45;18.95;;;6.78;;
34499;SDS011;20745;50.882;6.962;2022-08-21T06:04:40;23.77;;;7.43;;
34499;SDS011;20745;50.882;6.962;2022-08-21T06:07:27;22.13;;;7.07;;
34499;SDS011;20745;50.882;6.962;2022-08-21T06:10:15;18.00;;;7.45;;
34499;SDS011;20745;50.882;6.962;2022-08-21T06:13:03;19.98;;;7.13;;
34499;SDS011;20745;50.882;6.962;2022-08-21T06:16:00;17.58;;;6.63;;
34499;SDS011;20745;50.882;6.962;2022-08-21T06:19:09;19.30;;;7.28;;
34499;SDS011;20745;50.882;6.962;2022-08-21T06:21:56;18.65;;;7.13;;
34499;SDS011;20745;50.882;6.962;2022-08-21T06:24:43;21.48;;;7.50;;
34499;SDS011;20745;50.882;6.962;2022-08-21T06:27:30;20.60;;;6.93;;
34499;SDS011;20745;50.882;6.962;2022-08-21T06:30:18;17.88;;;6.25;;
34499;SDS011;20745;50.882;6.962;2022-08-21T06:33:06;18.63;;;6.53;;
34499;SDS011;20745;50.882;6.962;2022-08-21T06:35:54;20.15;;;7.30;;
34499;SDS011;20745;50.882;6.962;2022-08-21T06:38:41;18.45;;;6.63;;
34499;SDS011;20745;50.882;6.962;2022-08-21T06:41:37;20.10;;;6.88;;
34499;SDS011;20745;50.882;6.962;2022-08-21T06:44:26;21.63;;;6.72;;
34499;SDS011;20745;50.882;6.962;2022-08-21T06:47:13;18.17;;;7.00;;
34499;SDS011;20745;50.882;6.962;2022-08-21T06:50:01;18.63;;;6.53;;
34499;SDS011;20745;50.882;6.962;2022-08-21T06:52:49;17.55;;;5.65;;
34499;SDS011;20745;50.882;6.962;2022-08-21T06:55:36;18.42;;;6.22;;
34499;SDS011;20745;50.882;6.962;2022-08-21T06:58:24;19.48;;;6.85;;
34499;SDS011;20745;50.882;6.962;2022-08-21T07:01:11;16.45;;;6.03;;
34499;SDS011;20745;50.882;6.962;2022-08-21T07:03:59;20.25;;;6.13;;
34499;SDS011;20745;50.882;6.962;2022-08-21T07:06:46;18.35;;;6.43;;
34499;SDS011;20745;50.882;6.962;2022-08-21T07:09:34;19.45;;;6.68;;
34499;SDS011;20745;50.882;6.962;2022-08-21T07:12:32;19.58;;;6.47;;
34499;SDS011;20745;50.882;6.962;2022-08-21T07:15:21;16.38;;;6.28;;
34499;SDS011;20745;50.882;6.962;2022-08-21T07:18:09;17.88;;;6.82;;
34499;SDS011;20745;50.882;6.962;2022-08-21T07:20:56;16.77;;;5.82;;
34499;SDS011;20745;50.882;6.962;2022-08-21T07:23:45;19.05;;;6.30;;
34499;SDS011;20745;50.882;6.962;2022-08-21T07:26:35;17.08;;;5.32;;
34499;SDS011;20745;50.882;6.962;2022-08-21T07:29:22;16.38;;;5.65;;
34499;SDS011;20745;50.882;6.962;2022-08-21T07:32:10;21.70;;;7.45;;
34499;SDS011;20745;50.882;6.962;2022-08-21T07:34:57;19.10;;;4.57;;
34499;SDS011;20745;50.882;6.962;2022-08-21T07:37:44;16.40;;;4.72;;
34499;SDS011;20745;50.882;6.962;2022-08-21T07:40:32;13.88;;;4.38;;
34499;SDS011;20745;50.882;6.962;2022-08-21T07:43:19;16.95;;;4.05;;
34499;SDS011;20745;50.882;6.962;2022-08-21T07:46:08;15.27;;;4.37;;
34499;SDS011;20745;50.882;6.962;2022-08-21T07:48:55;15.82;;;4.43;;
34499;SDS011;20745;50.882;6.962;2022-08-21T07:51:42;17.95;;;4.63;;
34499;SDS011;20745;50.882;6.962;2022-08-21T07:54:30;14.75;;;3.45;;
34499;SDS011;20745;50.882;6.962;2022-08-21T07:57:21;17.92;;;3.80;;
34499;SDS011;20745;50.882;6.962;2022-08-21T08:00:10;11.52;;;2.92;;
34499;SDS011;20745;50.882;6.962;2022-08-21T08:02:59;13.80;;;2.63;;
34499;SDS011;20745;50.882;6.962;2022-08-21T08:05:47;13.68;;;2.80;;
34499;SDS011;20745;50.882;6.962;2022-08-21T08:08:35;14.18;;;2.53;;
34499;SDS011;20745;50.882;6.962;2022-08-21T08:11:22;11.73;;;2.50;;
34499;SDS011;20745;50.882;6.962;2022-08-21T08:14:09;14.55;;;2.58;;
34499;SDS011;20745;50.882;6.962;2022-08-21T08:16:57;11.38;;;2.40;;
34499;SDS011;20745;50.882;6.962;2022-08-21T08:19:44;9.90;;;2.38;;
34499;SDS011;20745;50.882;6.962;2022-08-21T08:22:32;10.85;;;2.38;;
34499;SDS011;20745;50.882;6.962;2022-08-21T08:25:21;11.45;;;2.47;;
34499;SDS011;20745;50.882;6.962;2022-08-21T08:28:09;14.95;;;2.53;;
34499;SDS011;20745;50.882;6.962;2022-08-21T08:31:03;10.27;;;2.35;;
34499;SDS011;20745;50.882;6.962;2022-08-21T08:33:51;12.43;;;2.10;;
34499;SDS011;20745;50.882;6.962;2022-08-21T08:36:38;10.60;;;2.22;;
34499;SDS011;20745;50.882;6.962;2022-08-21T08:39:27;12.90;;;2.47;;
34499;SDS011;20745;50.882;6.962;2022-08-21T08:42:17;9.27;;;1.80;;
34499;SDS011;20745;50.882;6.962;2022-08-21T08:45:21;11.02;;;2.13;;
34499;SDS011;20745;50.882;6.962;2022-08-21T08:48:14;13.55;;;2.20;;
34499;SDS011;20745;50.882;6.962;2022-08-21T08:51:20;12.07;;;2.20;;
34499;SDS011;20745;50.882;6.962;2022-08-21T08:54:17;9.35;;;1.65;;
34499;SDS011;20745;50.882;6.962;2022-08-21T08:57:16;12.15;;;2.67;;
34499;SDS011;20745;50.882;6.962;2022-08-21T09:00:08;12.00;;;2.40;;
34499;SDS011;20745;50.882;6.962;2022-08-21T09:02:59;12.98;;;2.30;;
34499;SDS011;20745;50.882;6.962;2022-08-21T09:05:51;13.07;;;2.42;;
34499;SDS011;20745;50.882;6.962;2022-08-21T09:08:54;10.27;;;2.17;;
34499;SDS011;20745;50.882;6.962;2022-08-21T09:15:11;12.07;;;2.50;;
34499;SDS011;20745;50.882;6.962;2022-08-21T09:18:16;14.45;;;2.65;;
34499;SDS011;20745;50.882;6.962;2022-08-21T09:27:13;9.80;;;2.25;;
34499;SDS011;20745;50.882;6.962;2022-08-21T09:30:03;9.07;;;2.33;;
34499;SDS011;20745;50.882;6.962;2022-08-21T09:32:52;12.48;;;2.63;;
34499;SDS011;20745;50.882;6.962;2022-08-21T09:35:51;12.25;;;2.78;;
34499;SDS011;20745;50.882;6.962;2022-08-21T09:38:40;12.00;;;2.53;;
34499;SDS011;20745;50.882;6.962;2022-08-21T09:41:29;15.18;;;2.83;;
34499;SDS011;20745;50.882;6.962;2022-08-21T09:44:23;13.75;;;2.83;;
34499;SDS011;20745;50.882;6.962;2022-08-21T09:47:12;9.82;;;2.40;;
34499;SDS011;20745;50.882;6.962;2022-08-21T09:50:21;11.27;;;2.47;;
34499;SDS011;20745;50.882;6.962;2022-08-21T09:53:28;10.25;;;2.63;;
34499;SDS011;20745;50.882;6.962;2022-08-21T09:56:29;11.80;;;2.67;;
34499;SDS011;20745;50.882;6.962;2022-08-21T09:59:38;11.05;;;2.35;;
34499;SDS011;20745;50.882;6.962;2022-08-21T10:02:28;9.73;;;2.13;;
34499;SDS011;20745;50.882;6.962;2022-08-21T10:05:23;13.82;;;2.42;;
34499;SDS011;20745;50.882;6.962;2022-08-21T10:08:22;13.38;;;2.10;;
34499;SDS011;20745;50.882;6.962;2022-08-21T10:11:14;13.60;;;2.58;;
34499;SDS011;20745;50.882;6.962;2022-08-21T10:17:03;13.10;;;2.42;;
34499;SDS011;20745;50.882;6.962;2022-08-21T10:20:11;8.35;;;2.25;;
34499;SDS011;20745;50.882;6.962;2022-08-21T10:24:07;15.40;;;2.63;;
34499;SDS011;20745;50.882;6.962;2022-08-21T10:35:37;9.02;;;1.77;;
34499;SDS011;20745;50.882;6.962;2022-08-21T10:38:42;13.57;;;2.20;;
34499;SDS011;20745;50.882;6.962;2022-08-21T10:51:31;8.43;;;1.92;;
34499;SDS011;20745;50.882;6.962;2022-08-21T10:54:45;10.45;;;2.53;;
34499;SDS011;20745;50.882;6.962;2022-08-21T10:57:48;8.45;;;1.98;;
34499;SDS011;20745;50.882;6.962;2022-08-21T11:00:43;10.40;;;2.03;;
34499;SDS011;20745;50.882;6.962;2022-08-21T11:06:31;13.23;;;2.03;;
34499;SDS011;20745;50.882;6.962;2022-08-21T11:09:20;12.07;;;2.20;;
34499;SDS011;20745;50.882;6.962;2022-08-21T11:12:19;10.40;;;2.28;;
34499;SDS011;20745;50.882;6.962;2022-08-21T11:15:24;9.55;;;2.03;;
34499;SDS011;20745;50.882;6.962;2022-08-21T11:18:28;13.52;;;2.15;;
34499;SDS011;20745;50.882;6.962;2022-08-21T11:24:32;10.25;;;1.95;;
34499;SDS011;20745;50.882;6.962;2022-08-21T11:27:53;11.88;;;2.20;;
34499;SDS011;20745;50.882;6.962;2022-08-21T11:30:58;9.35;;;2.00;;
34499;SDS011;20745;50.882;6.962;2022-08-21T11:34:05;10.98;;;2.00;;
34499;SDS011;20745;50.882;6.962;2022-08-21T11:40:04;9.10;;;2.00;;
34499;SDS011;20745;50.882;6.962;2022-08-21T11:49:27;7.95;;;1.63;;
34499;SDS011;20745;50.882;6.962;2022-08-21T11:52:21;11.68;;;1.80;;
34499;SDS011;20745;50.882;6.962;2022-08-21T11:55:28;11.90;;;1.67;;
34499;SDS011;20745;50.882;6.962;2022-08-21T11:58:22;12.65;;;2.30;;
34499;SDS011;20745;50.882;6.962;2022-08-21T12:04:15;10.90;;;2.00;;
34499;SDS011;20745;50.882;6.962;2022-08-21T12:07:13;9.10;;;1.83;;
34499;SDS011;20745;50.882;6.962;2022-08-21T12:10:18;7.85;;;1.58;;
34499;SDS011;20745;50.882;6.962;2022-08-21T12:13:27;10.13;;;1.98;;
34499;SDS011;20745;50.882;6.962;2022-08-21T12:24:53;6.95;;;1.50;;
34499;SDS011;20745;50.882;6.962;2022-08-21T12:27:53;7.95;;;1.98;;
34499;SDS011;20745;50.882;6.962;2022-08-21T12:30:53;10.38;;;1.90;;
34499;SDS011;20745;50.882;6.962;2022-08-21T12:33:47;10.73;;;1.75;;
34499;SDS011;20745;50.882;6.962;2022-08-21T12:36:42;9.02;;;1.80;;
34499;SDS011;20745;50.882;6.962;2022-08-21T12:39:33;9.43;;;1.90;;
34499;SDS011;20745;50.882;6.962;2022-08-21T12:42:24;8.27;;;1.50;;
34499;SDS011;20745;50.882;6.962;2022-08-21T12:45:33;11.10;;;2.03;;
34499;SDS011;20745;50.882;6.962;2022-08-21T12:48:33;8.23;;;1.70;;
34499;SDS011;20745;50.882;6.962;2022-08-21T12:51:26;7.07;;;1.55;;
34499;SDS011;20745;50.882;6.962;2022-08-21T12:54:29;8.60;;;1.67;;
34499;SDS011;20745;50.882;6.962;2022-08-21T12:57:20;12.05;;;2.10;;
34499;SDS011;20745;50.882;6.962;2022-08-21T13:00:10;9.50;;;1.73;;
34499;SDS011;20745;50.882;6.962;2022-08-21T13:02:59;6.28;;;1.60;;
34499;SDS011;20745;50.882;6.962;2022-08-21T13:05:47;11.18;;;2.00;;
34499;SDS011;20745;50.882;6.962;2022-08-21T13:08:35;10.13;;;1.92;;
34499;SDS011;20745;50.882;6.962;2022-08-21T13:11:27;11.27;;;1.88;;
34499;SDS011;20745;50.882;6.962;2022-08-21T13:17:18;10.23;;;1.67;;
34499;SDS011;20745;50.882;6.962;2022-08-21T13:20:19;6.90;;;1.85;;
34499;SDS011;20745;50.882;6.962;2022-08-21T13:23:18;9.68;;;1.98;;
34499;SDS011;20745;50.882;6.962;2022-08-21T13:26:13;8.43;;;1.95;;
34499;SDS011;20745;50.882;6.962;2022-08-21T13:29:08;11.90;;;1.90;;
34499;SDS011;20745;50.882;6.962;2022-08-21T13:32:00;9.27;;;1.80;;
34499;SDS011;20745;50.882;6.962;2022-08-21T13:34:49;7.57;;;1.50;;
34499;SDS011;20745;50.882;6.962;2022-08-21T13:37:41;9.60;;;1.83;;
34499;SDS011;20745;50.882;6.962;2022-08-21T13:40:45;9.90;;;1.95;;
34499;SDS011;20745;50.882;6.962;2022-08-21T13:43:35;14.10;;;2.28;;
34499;SDS011;20745;50.882;6.962;2022-08-21T13:46:24;9.88;;;2.08;;
34499;SDS011;20745;50.882;6.962;2022-08-21T13:49:15;10.30;;;1.90;;
34499;SDS011;20745;50.882;6.962;2022-08-21T13:52:04;10.25;;;2.00;;
34499;SDS011;20745;50.882;6.962;2022-08-21T13:55:06;9.93;;;2.20;;
34499;SDS011;20745;50.882;6.962;2022-08-21T13:57:59;7.68;;;1.70;;
34499;SDS011;20745;50.882;6.962;2022-08-21T14:00:48;11.20;;;1.77;;
34499;SDS011;20745;50.882;6.962;2022-08-21T14:03:38;10.63;;;2.13;;
34499;SDS011;20745;50.882;6.962;2022-08-21T14:08:59;7.35;;;1.55;;
34499;SDS011;20745;50.882;6.962;2022-08-21T14:11:48;8.05;;;1.52;;
34499;SDS011;20745;50.882;6.962;2022-08-21T14:14:37;8.90;;;1.92;;
34499;SDS011;20745;50.882;6.962;2022-08-21T14:17:29;10.30;;;2.05;;
34499;SDS011;20745;50.882;6.962;2022-08-21T14:20:28;10.05;;;2.25;;
34499;SDS011;20745;50.882;6.962;2022-08-21T14:23:23;6.85;;;1.67;;
34499;SDS011;20745;50.882;6.962;2022-08-21T14:26:14;13.88;;;2.53;;
34499;SDS011;20745;50.882;6.962;2022-08-21T14:29:06;9.82;;;1.77;;
34499;SDS011;20745;50.882;6.962;2022-08-21T14:31:58;33.30;;;10.82;;
34499;SDS011;20745;50.882;6.962;2022-08-21T14:34:46;11.48;;;1.85;;
34499;SDS011;20745;50.882;6.962;2022-08-21T14:37:34;18.20;;;4.55;;
34499;SDS011;20745;50.882;6.962;2022-08-21T14:40:22;12.50;;;2.20;;
34499;SDS011;20745;50.882;6.962;2022-08-21T14:43:11;6.22;;;1.65;;
34499;SDS011;20745;50.882;6.962;2022-08-21T14:45:58;8.98;;;1.90;;
34499;SDS011;20745;50.882;6.962;2022-08-21T14:48:47;10.68;;;1.92;;
34499;SDS011;20745;50.882;6.962;2022-08-21T14:51:35;7.25;;;1.65;;
34499;SDS011;20745;50.882;6.962;2022-08-21T14:54:39;8.13;;;1.50;;
34499;SDS011;20745;50.882;6.962;2022-08-21T14:57:27;8.80;;;1.60;;
34499;SDS011;20745;50.882;6.962;2022-08-21T15:00:18;11.70;;;1.90;;
34499;SDS011;20745;50.882;6.962;2022-08-21T15:03:13;9.05;;;1.90;;
34499;SDS011;20745;50.882;6.962;2022-08-21T15:06:00;7.97;;;1.60;;
34499;SDS011;20745;50.882;6.962;2022-08-21T15:08:48;6.80;;;1.48;;
34499;SDS011;20745;50.882;6.962;2022-08-21T15:11:35;7.53;;;1.65;;
34499;SDS011;20745;50.882;6.962;2022-08-21T15:14:30;6.93;;;1.70;;
34499;SDS011;20745;50.882;6.962;2022-08-21T15:17:21;7.22;;;1.40;;
34499;SDS011;20745;50.882;6.962;2022-08-21T15:20:08;5.78;;;1.25;;
34499;SDS011;20745;50.882;6.962;2022-08-21T15:22:56;7.47;;;1.67;;
34499;SDS011;20745;50.882;6.962;2022-08-21T15:25:45;6.78;;;1.38;;
34499;SDS011;20745;50.882;6.962;2022-08-21T15:28:33;5.10;;;1.40;;
34499;SDS011;20745;50.882;6.962;2022-08-21T15:31:21;8.55;;;1.70;;
34499;SDS011;20745;50.882;6.962;2022-08-21T15:34:08;7.88;;;1.58;;
34499;SDS011;20745;50.882;6.962;2022-08-21T15:36:56;11.20;;;2.03;;
34499;SDS011;20745;50.882;6.962;2022-08-21T15:39:44;8.32;;;1.67;;
34499;SDS011;20745;50.882;6.962;2022-08-21T15:42:40;4.30;;;1.27;;
34499;SDS011;20745;50.882;6.962;2022-08-21T15:45:28;9.63;;;1.87;;
34499;SDS011;20745;50.882;6.962;2022-08-21T15:48:15;6.75;;;1.70;;
34499;SDS011;20745;50.882;6.962;2022-08-21T15:51:03;10.57;;;1.83;;
34499;SDS011;20745;50.882;6.962;2022-08-21T15:53:50;9.68;;;1.63;;
34499;SDS011;20745;50.882;6.962;2022-08-21T15:56:38;9.93;;;2.15;;
34499;SDS011;20745;50.882;6.962;2022-08-21T15:59:27;6.18;;;1.48;;
34499;SDS011;20745;50.882;6.962;2022-08-21T16:02:25;8.65;;;1.52;;
34499;SDS011;20745;50.882;6.962;2022-08-21T16:05:15;8.77;;;1.98;;
34499;SDS011;20745;50.882;6.962;2022-08-21T16:08:03;9.65;;;1.80;;
34499;SDS011;20745;50.882;6.962;2022-08-21T16:10:51;7.75;;;1.73;;
34499;SDS011;20745;50.882;6.962;2022-08-21T16:13:40;9.35;;;1.65;;
34499;SDS011;20745;50.882;6.962;2022-08-21T16:16:29;10.38;;;1.92;;
34499;SDS011;20745;50.882;6.962;2022-08-21T16:19:21;7.63;;;1.70;;
34499;SDS011;20745;50.882;6.962;2022-08-21T16:22:09;6.53;;;1.40;;
34499;SDS011;20745;50.882;6.962;2022-08-21T16:24:56;7.30;;;1.70;;
34499;SDS011;20745;50.882;6.962;2022-08-21T16:27:44;9.68;;;1.95;;
34499;SDS011;20745;50.882;6.962;2022-08-21T16:30:34;9.40;;;1.90;;
34499;SDS011;20745;50.882;6.962;2022-08-21T16:33:26;5.88;;;1.48;;
34499;SDS011;20745;50.882;6.962;2022-08-21T16:36:19;5.68;;;1.50;;
34499;SDS011;20745;50.882;6.962;2022-08-21T16:39:08;8.73;;;1.70;;
34499;SDS011;20745;50.882;6.962;2022-08-21T16:41:55;13.02;;;2.13;;
34499;SDS011;20745;50.882;6.962;2022-08-21T16:44:42;7.72;;;1.67;;
34499;SDS011;20745;50.882;6.962;2022-08-21T16:47:34;8.48;;;2.03;;
34499;SDS011;20745;50.882;6.962;2022-08-21T16:50:22;6.10;;;1.50;;
34499;SDS011;20745;50.882;6.962;2022-08-21T16:53:10;5.67;;;1.40;;
34499;SDS011;20745;50.882;6.962;2022-08-21T16:55:57;8.32;;;1.65;;
34499;SDS011;20745;50.882;6.962;2022-08-21T16:58:46;6.28;;;1.35;;
34499;SDS011;20745;50.882;6.962;2022-08-21T17:01:35;9.10;;;1.50;;
34499;SDS011;20745;50.882;6.962;2022-08-21T17:04:23;10.18;;;1.55;;
34499;SDS011;20745;50.882;6.962;2022-08-21T17:07:13;8.23;;;1.73;;
34499;SDS011;20745;50.882;6.962;2022-08-21T17:10:00;7.43;;;1.55;;
34499;SDS011;20745;50.882;6.962;2022-08-21T17:12:50;9.52;;;1.60;;
34499;SDS011;20745;50.882;6.962;2022-08-21T17:15:42;6.57;;;1.70;;
34499;SDS011;20745;50.882;6.962;2022-08-21T17:18:29;8.02;;;1.38;;
34499;SDS011;20745;50.882;6.962;2022-08-21T17:21:16;9.95;;;1.70;;
34499;SDS011;20745;50.882;6.962;2022-08-21T17:24:05;8.63;;;1.63;;
34499;SDS011;20745;50.882;6.962;2022-08-21T17:26:53;6.43;;;1.40;;
34499;SDS011;20745;50.882;6.962;2022-08-21T17:29:42;8.52;;;1.58;;
34499;SDS011;20745;50.882;6.962;2022-08-21T17:32:29;8.85;;;2.03;;
34499;SDS011;20745;50.882;6.962;2022-08-21T17:35:17;9.05;;;1.70;;
34499;SDS011;20745;50.882;6.962;2022-08-21T17:38:04;8.73;;;1.70;;
34499;SDS011;20745;50.882;6.962;2022-08-21T17:40:51;8.68;;;1.70;;
34499;SDS011;20745;50.882;6.962;2022-08-21T17:43:40;6.75;;;1.63;;
34499;SDS011;20745;50.882;6.962;2022-08-21T17:46:28;9.98;;;1.75;;
34499;SDS011;20745;50.882;6.962;2022-08-21T17:49:15;5.63;;;1.52;;
34499;SDS011;20745;50.882;6.962;2022-08-21T17:52:03;5.95;;;1.63;;
34499;SDS011;20745;50.882;6.962;2022-08-21T17:54:51;8.77;;;1.27;;
34499;SDS011;20745;50.882;6.962;2022-08-21T17:57:38;8.30;;;1.70;;
34499;SDS011;20745;50.882;6.962;2022-08-21T18:00:27;8.30;;;1.63;;
34499;SDS011;20745;50.882;6.962;2022-08-21T18:03:17;5.90;;;1.70;;
34499;SDS011;20745;50.882;6.962;2022-08-21T18:06:06;7.85;;;1.75;;